sensor_id;sensor_type;location;lat;lon;timestamp;temperature;humidity
9980;DHT22;5030;51.532;6.766;2023-06-10T00:01:34;19.00;66.10
9980;DHT22;5030;51.532;6.766;2023-06-10T00:04:02;18.90;64.60
9980;DHT22;5030;51.532;6.766;2023-06-10T00:06:28;18.90;70.10
9980;DHT22;5030;51.532;6.766;2023-06-10T00:08:54;18.90;71.60
9980;DHT22;5030;51.532;6.766;2023-06-10T00:11:21;18.90;71.80
9980;DHT22;5030;51.532;6.766;2023-06-10T00:13:47;18.80;72.60
9980;DHT22;5030;51.532;6.766;2023-06-10T00:16:14;18.70;70.10
9980;DHT22;5030;51.532;6.766;2023-06-10T00:18:39;18.70;74.00
9980;DHT22;5030;51.532;6.766;2023-06-10T00:21:05;18.70;77.20
9980;DHT22;5030;51.532;6.766;2023-06-10T00:23:31;18.70;78.40
9980;DHT22;5030;51.532;6.766;2023-06-10T00:25:58;18.50;79.10
9980;DHT22;5030;51.532;6.766;2023-06-10T00:28:24;18.60;79.00
9980;DHT22;5030;51.532;6.766;2023-06-10T00:30:50;18.70;80.80
9980;DHT22;5030;51.532;6.766;2023-06-10T00:33:16;18.70;77.00
9980;DHT22;5030;51.532;6.766;2023-06-10T00:35:42;18.60;78.20
9980;DHT22;5030;51.532;6.766;2023-06-10T00:38:09;18.60;77.30
9980;DHT22;5030;51.532;6.766;2023-06-10T00:40:43;18.80;73.10
9980;DHT22;5030;51.532;6.766;2023-06-10T00:43:09;18.80;70.90
9980;DHT22;5030;51.532;6.766;2023-06-10T00:45:36;18.90;68.70
9980;DHT22;5030;51.532;6.766;2023-06-10T00:48:02;19.00;65.50
9980;DHT22;5030;51.532;6.766;2023-06-10T00:50:29;19.10;65.20
9980;DHT22;5030;51.532;6.766;2023-06-10T00:52:56;19.20;62.80
9980;DHT22;5030;51.532;6.766;2023-06-10T00:55:22;19.00;64.20
9980;DHT22;5030;51.532;6.766;2023-06-10T00:57:49;19.10;65.90
9980;DHT22;5030;51.532;6.766;2023-06-10T01:00:15;19.10;66.50
9980;DHT22;5030;51.532;6.766;2023-06-10T01:02:41;18.90;68.60
9980;DHT22;5030;51.532;6.766;2023-06-10T01:05:08;19.00;73.80
9980;DHT22;5030;51.532;6.766;2023-06-10T01:10:23;18.70;79.50
9980;DHT22;5030;51.532;6.766;2023-06-10T01:15:29;18.60;79.80
9980;DHT22;5030;51.532;6.766;2023-06-10T01:18:01;18.60;82.10
9980;DHT22;5030;51.532;6.766;2023-06-10T01:20:29;18.70;84.50
9980;DHT22;5030;51.532;6.766;2023-06-10T01:22:58;18.80;83.50
9980;DHT22;5030;51.532;6.766;2023-06-10T01:25:25;18.70;82.80
9980;DHT22;5030;51.532;6.766;2023-06-10T01:28:19;18.80;82.30
9980;DHT22;5030;51.532;6.766;2023-06-10T01:30:53;18.80;84.40
9980;DHT22;5030;51.532;6.766;2023-06-10T01:33:35;18.80;88.00
9980;DHT22;5030;51.532;6.766;2023-06-10T01:36:02;18.50;90.40
9980;DHT22;5030;51.532;6.766;2023-06-10T01:38:32;18.60;91.90
9980;DHT22;5030;51.532;6.766;2023-06-10T01:40:58;18.60;91.90
9980;DHT22;5030;51.532;6.766;2023-06-10T01:43:24;18.60;92.60
9980;DHT22;5030;51.532;6.766;2023-06-10T01:45:51;18.40;94.30
9980;DHT22;5030;51.532;6.766;2023-06-10T01:48:17;18.30;95.60
9980;DHT22;5030;51.532;6.766;2023-06-10T01:50:43;18.30;97.20
9980;DHT22;5030;51.532;6.766;2023-06-10T01:53:09;18.20;98.00
9980;DHT22;5030;51.532;6.766;2023-06-10T01:55:35;18.10;99.50
9980;DHT22;5030;51.532;6.766;2023-06-10T02:57:34;17.50;99.90
9980;DHT22;5030;51.532;6.766;2023-06-10T02:59:59;17.50;99.90
9980;DHT22;5030;51.532;6.766;2023-06-10T03:02:25;17.60;99.90
9980;DHT22;5030;51.532;6.766;2023-06-10T03:04:57;17.60;99.90
9980;DHT22;5030;51.532;6.766;2023-06-10T03:07:22;17.70;99.90
9980;DHT22;5030;51.532;6.766;2023-06-10T03:09:48;17.70;99.90
9980;DHT22;5030;51.532;6.766;2023-06-10T03:12:15;17.70;99.90
9980;DHT22;5030;51.532;6.766;2023-06-10T03:14:41;17.70;99.90
9980;DHT22;5030;51.532;6.766;2023-06-10T03:17:07;17.60;99.90
9980;DHT22;5030;51.532;6.766;2023-06-10T03:19:34;17.60;99.90
9980;DHT22;5030;51.532;6.766;2023-06-10T03:22:11;17.80;99.90
9980;DHT22;5030;51.532;6.766;2023-06-10T03:24:37;17.70;99.90
9980;DHT22;5030;51.532;6.766;2023-06-10T03:27:07;17.60;99.90
9980;DHT22;5030;51.532;6.766;2023-06-10T03:29:33;17.60;99.90
9980;DHT22;5030;51.532;6.766;2023-06-10T03:31:58;17.70;99.90
9980;DHT22;5030;51.532;6.766;2023-06-10T03:34:24;17.60;99.90
9980;DHT22;5030;51.532;6.766;2023-06-10T03:36:50;17.50;99.70
9980;DHT22;5030;51.532;6.766;2023-06-10T03:39:15;17.50;99.20
9980;DHT22;5030;51.532;6.766;2023-06-10T03:41:41;17.60;99.00
9980;DHT22;5030;51.532;6.766;2023-06-10T03:44:07;17.60;98.50
9980;DHT22;5030;51.532;6.766;2023-06-10T03:46:32;17.60;97.70
9980;DHT22;5030;51.532;6.766;2023-06-10T03:48:58;17.50;97.70
9980;DHT22;5030;51.532;6.766;2023-06-10T03:51:26;17.70;97.40
9980;DHT22;5030;51.532;6.766;2023-06-10T03:53:52;17.60;97.70
9980;DHT22;5030;51.532;6.766;2023-06-10T03:56:17;17.60;97.50
9980;DHT22;5030;51.532;6.766;2023-06-10T03:58:43;17.60;98.70
9980;DHT22;5030;51.532;6.766;2023-06-10T04:01:09;17.50;99.20
9980;DHT22;5030;51.532;6.766;2023-06-10T04:03:36;17.40;99.00
9980;DHT22;5030;51.532;6.766;2023-06-10T04:06:01;17.50;99.70
9980;DHT22;5030;51.532;6.766;2023-06-10T04:08:28;17.40;99.90
9980;DHT22;5030;51.532;6.766;2023-06-10T04:10:53;17.30;99.90
9980;DHT22;5030;51.532;6.766;2023-06-10T04:13:19;17.40;99.90
9980;DHT22;5030;51.532;6.766;2023-06-10T04:15:45;17.30;99.90
9980;DHT22;5030;51.532;6.766;2023-06-10T04:18:11;17.30;99.90
9980;DHT22;5030;51.532;6.766;2023-06-10T04:20:36;17.30;99.90
9980;DHT22;5030;51.532;6.766;2023-06-10T04:23:02;17.40;99.40
9980;DHT22;5030;51.532;6.766;2023-06-10T04:25:28;17.30;99.40
9980;DHT22;5030;51.532;6.766;2023-06-10T04:27:54;17.30;97.00
9980;DHT22;5030;51.532;6.766;2023-06-10T04:30:20;17.30;97.50
9980;DHT22;5030;51.532;6.766;2023-06-10T04:32:45;17.40;96.90
9980;DHT22;5030;51.532;6.766;2023-06-10T04:35:12;17.50;95.60
9980;DHT22;5030;51.532;6.766;2023-06-10T04:37:39;17.60;95.10
9980;DHT22;5030;51.532;6.766;2023-06-10T04:40:06;17.60;93.90
9980;DHT22;5030;51.532;6.766;2023-06-10T04:42:32;17.60;94.40
9980;DHT22;5030;51.532;6.766;2023-06-10T04:44:57;17.50;94.20
9980;DHT22;5030;51.532;6.766;2023-06-10T04:47:23;17.60;93.70
9980;DHT22;5030;51.532;6.766;2023-06-10T04:49:48;17.60;92.60
9980;DHT22;5030;51.532;6.766;2023-06-10T04:52:14;17.80;91.20
9980;DHT22;5030;51.532;6.766;2023-06-10T04:54:40;18.00;90.00
9980;DHT22;5030;51.532;6.766;2023-06-10T04:57:06;17.90;88.30
9980;DHT22;5030;51.532;6.766;2023-06-10T04:59:33;18.10;87.80
9980;DHT22;5030;51.532;6.766;2023-06-10T05:02:03;18.10;85.00
9980;DHT22;5030;51.532;6.766;2023-06-10T05:04:29;18.00;85.70
9980;DHT22;5030;51.532;6.766;2023-06-10T05:06:55;18.10;85.10
9980;DHT22;5030;51.532;6.766;2023-06-10T05:09:20;18.30;81.10
9980;DHT22;5030;51.532;6.766;2023-06-10T05:11:46;18.30;78.20
9980;DHT22;5030;51.532;6.766;2023-06-10T05:14:12;18.40;77.40
9980;DHT22;5030;51.532;6.766;2023-06-10T05:16:38;18.40;71.30
9980;DHT22;5030;51.532;6.766;2023-06-10T05:19:04;18.60;73.10
9980;DHT22;5030;51.532;6.766;2023-06-10T05:21:30;18.50;68.20
9980;DHT22;5030;51.532;6.766;2023-06-10T05:23:55;18.70;67.10
9980;DHT22;5030;51.532;6.766;2023-06-10T05:26:21;18.80;68.50
9980;DHT22;5030;51.532;6.766;2023-06-10T05:28:47;18.70;65.00
9980;DHT22;5030;51.532;6.766;2023-06-10T05:31:13;18.80;61.60
9980;DHT22;5030;51.532;6.766;2023-06-10T05:33:39;19.00;58.90
9980;DHT22;5030;51.532;6.766;2023-06-10T05:36:05;19.00;56.70
9980;DHT22;5030;51.532;6.766;2023-06-10T05:38:31;19.10;55.90
9980;DHT22;5030;51.532;6.766;2023-06-10T05:40:56;19.00;51.90
9980;DHT22;5030;51.532;6.766;2023-06-10T05:43:22;19.30;52.30
9980;DHT22;5030;51.532;6.766;2023-06-10T05:45:48;19.30;50.30
9980;DHT22;5030;51.532;6.766;2023-06-10T05:48:13;19.30;45.50
9980;DHT22;5030;51.532;6.766;2023-06-10T05:50:39;19.50;45.90
9980;DHT22;5030;51.532;6.766;2023-06-10T05:53:08;19.60;45.10
9980;DHT22;5030;51.532;6.766;2023-06-10T05:55:43;19.60;39.10
9980;DHT22;5030;51.532;6.766;2023-06-10T05:58:09;19.60;37.00
9980;DHT22;5030;51.532;6.766;2023-06-10T06:00:35;19.70;37.00
9980;DHT22;5030;51.532;6.766;2023-06-10T06:03:01;19.80;34.20
9980;DHT22;5030;51.532;6.766;2023-06-10T06:05:26;19.80;35.10
9980;DHT22;5030;51.532;6.766;2023-06-10T06:07:52;19.80;37.70
9980;DHT22;5030;51.532;6.766;2023-06-10T06:10:18;20.00;32.90
9980;DHT22;5030;51.532;6.766;2023-06-10T06:12:44;20.00;28.20
9980;DHT22;5030;51.532;6.766;2023-06-10T06:15:10;20.00;27.80
9980;DHT22;5030;51.532;6.766;2023-06-10T06:17:36;20.10;25.30
9980;DHT22;5030;51.532;6.766;2023-06-10T06:20:03;20.20;25.50
9980;DHT22;5030;51.532;6.766;2023-06-10T06:22:28;20.20;25.00
9980;DHT22;5030;51.532;6.766;2023-06-10T06:24:54;20.30;21.20
9980;DHT22;5030;51.532;6.766;2023-06-10T06:27:20;20.40;21.00
9980;DHT22;5030;51.532;6.766;2023-06-10T06:29:46;20.40;20.50
9980;DHT22;5030;51.532;6.766;2023-06-10T06:32:12;20.50;18.00
9980;DHT22;5030;51.532;6.766;2023-06-10T06:34:38;20.60;20.10
9980;DHT22;5030;51.532;6.766;2023-06-10T06:37:03;20.80;16.10
9980;DHT22;5030;51.532;6.766;2023-06-10T06:39:29;20.80;14.10
9980;DHT22;5030;51.532;6.766;2023-06-10T06:41:55;20.80;10.10
9980;DHT22;5030;51.532;6.766;2023-06-10T06:44:21;21.00;10.10
9980;DHT22;5030;51.532;6.766;2023-06-10T06:46:46;20.90;12.00
9980;DHT22;5030;51.532;6.766;2023-06-10T06:49:12;21.00;10.90
9980;DHT22;5030;51.532;6.766;2023-06-10T06:51:37;21.10;9.00
9980;DHT22;5030;51.532;6.766;2023-06-10T06:54:03;21.20;9.30
9980;DHT22;5030;51.532;6.766;2023-06-10T06:56:31;21.20;9.70
9980;DHT22;5030;51.532;6.766;2023-06-10T06:58:56;21.30;9.20
9980;DHT22;5030;51.532;6.766;2023-06-10T07:01:22;21.30;8.10
9980;DHT22;5030;51.532;6.766;2023-06-10T07:03:48;21.50;5.20
9980;DHT22;5030;51.532;6.766;2023-06-10T07:06:13;21.50;4.80
9980;DHT22;5030;51.532;6.766;2023-06-10T07:08:39;21.50;7.80
9980;DHT22;5030;51.532;6.766;2023-06-10T07:11:05;21.70;4.80
9980;DHT22;5030;51.532;6.766;2023-06-10T07:13:30;21.80;2.20
9980;DHT22;5030;51.532;6.766;2023-06-10T07:15:56;21.90;3.80
9980;DHT22;5030;51.532;6.766;2023-06-10T07:18:21;21.80;6.30
9980;DHT22;5030;51.532;6.766;2023-06-10T07:20:50;21.90;5.50
9980;DHT22;5030;51.532;6.766;2023-06-10T07:23:15;22.00;1.00
9980;DHT22;5030;51.532;6.766;2023-06-10T07:25:41;22.10;1.00
9980;DHT22;5030;51.532;6.766;2023-06-10T07:28:07;22.30;1.00
9980;DHT22;5030;51.532;6.766;2023-06-10T07:30:33;22.20;1.00
9980;DHT22;5030;51.532;6.766;2023-06-10T07:32:58;22.20;1.00
9980;DHT22;5030;51.532;6.766;2023-06-10T07:35:24;22.40;1.00
9980;DHT22;5030;51.532;6.766;2023-06-10T07:37:50;22.40;1.00
9980;DHT22;5030;51.532;6.766;2023-06-10T07:40:15;22.50;1.00
9980;DHT22;5030;51.532;6.766;2023-06-10T07:42:41;22.50;1.00
9980;DHT22;5030;51.532;6.766;2023-06-10T07:45:07;22.60;1.00
9980;DHT22;5030;51.532;6.766;2023-06-10T07:47:34;22.70;1.00
9980;DHT22;5030;51.532;6.766;2023-06-10T07:50:00;22.70;1.00
9980;DHT22;5030;51.532;6.766;2023-06-10T07:52:25;22.70;1.00
9980;DHT22;5030;51.532;6.766;2023-06-10T07:54:51;22.80;1.00
9980;DHT22;5030;51.532;6.766;2023-06-10T07:57:18;22.90;1.00
9980;DHT22;5030;51.532;6.766;2023-06-10T07:59:44;22.80;1.00
9980;DHT22;5030;51.532;6.766;2023-06-10T08:02:10;23.00;1.00
9980;DHT22;5030;51.532;6.766;2023-06-10T08:04:35;23.30;1.00
9980;DHT22;5030;51.532;6.766;2023-06-10T08:07:01;23.20;1.00
9980;DHT22;5030;51.532;6.766;2023-06-10T08:09:28;23.30;1.00
9980;DHT22;5030;51.532;6.766;2023-06-10T08:11:53;23.70;1.00
9980;DHT22;5030;51.532;6.766;2023-06-10T08:14:19;23.90;1.00
9980;DHT22;5030;51.532;6.766;2023-06-10T08:16:45;24.20;1.00
9980;DHT22;5030;51.532;6.766;2023-06-10T08:19:11;24.20;1.00
9980;DHT22;5030;51.532;6.766;2023-06-10T08:21:36;24.20;1.00
9980;DHT22;5030;51.532;6.766;2023-06-10T08:24:09;24.30;1.00
9980;DHT22;5030;51.532;6.766;2023-06-10T08:26:35;24.50;1.00
9980;DHT22;5030;51.532;6.766;2023-06-10T08:29:00;24.70;1.00
9980;DHT22;5030;51.532;6.766;2023-06-10T08:31:26;24.90;1.00
9980;DHT22;5030;51.532;6.766;2023-06-10T08:33:52;24.90;1.00
9980;DHT22;5030;51.532;6.766;2023-06-10T08:36:17;25.00;1.00
9980;DHT22;5030;51.532;6.766;2023-06-10T08:38:43;24.90;1.00
9980;DHT22;5030;51.532;6.766;2023-06-10T08:41:09;25.00;1.00
9980;DHT22;5030;51.532;6.766;2023-06-10T08:43:39;25.00;1.00
9980;DHT22;5030;51.532;6.766;2023-06-10T08:46:09;25.10;1.00
9980;DHT22;5030;51.532;6.766;2023-06-10T08:48:39;25.50;1.00
9980;DHT22;5030;51.532;6.766;2023-06-10T08:51:09;25.50;1.00
9980;DHT22;5030;51.532;6.766;2023-06-10T08:53:38;25.60;1.00
9980;DHT22;5030;51.532;6.766;2023-06-10T08:56:06;25.60;1.00
9980;DHT22;5030;51.532;6.766;2023-06-10T08:58:32;25.70;1.00
9980;DHT22;5030;51.532;6.766;2023-06-10T09:01:00;25.80;1.00
9980;DHT22;5030;51.532;6.766;2023-06-10T09:03:27;26.00;1.00
9980;DHT22;5030;51.532;6.766;2023-06-10T09:05:53;26.10;1.00
9980;DHT22;5030;51.532;6.766;2023-06-10T09:08:22;26.30;1.00
9980;DHT22;5030;51.532;6.766;2023-06-10T09:10:48;26.30;1.00
9980;DHT22;5030;51.532;6.766;2023-06-10T09:13:14;26.50;1.00
9980;DHT22;5030;51.532;6.766;2023-06-10T09:15:41;26.50;1.00
9980;DHT22;5030;51.532;6.766;2023-06-10T09:18:07;26.60;1.00
9980;DHT22;5030;51.532;6.766;2023-06-10T09:20:33;26.80;1.00
9980;DHT22;5030;51.532;6.766;2023-06-10T09:22:59;26.70;1.00
9980;DHT22;5030;51.532;6.766;2023-06-10T09:25:35;26.70;1.00
9980;DHT22;5030;51.532;6.766;2023-06-10T09:28:02;26.80;1.00
9980;DHT22;5030;51.532;6.766;2023-06-10T09:30:31;26.80;1.00
9980;DHT22;5030;51.532;6.766;2023-06-10T09:32:59;26.90;1.00
9980;DHT22;5030;51.532;6.766;2023-06-10T09:35:26;27.10;1.00
9980;DHT22;5030;51.532;6.766;2023-06-10T09:37:53;27.30;1.00
9980;DHT22;5030;51.532;6.766;2023-06-10T09:40:19;27.40;1.00
9980;DHT22;5030;51.532;6.766;2023-06-10T09:42:45;27.50;1.00
9980;DHT22;5030;51.532;6.766;2023-06-10T09:45:10;27.70;1.00
9980;DHT22;5030;51.532;6.766;2023-06-10T09:47:36;27.90;1.00
9980;DHT22;5030;51.532;6.766;2023-06-10T09:50:02;27.80;1.00
9980;DHT22;5030;51.532;6.766;2023-06-10T09:52:29;27.90;1.00
9980;DHT22;5030;51.532;6.766;2023-06-10T09:54:59;28.10;1.00
9980;DHT22;5030;51.532;6.766;2023-06-10T09:57:31;28.30;1.00
9980;DHT22;5030;51.532;6.766;2023-06-10T09:59:57;28.40;1.00
9980;DHT22;5030;51.532;6.766;2023-06-10T10:02:23;28.50;1.00
9980;DHT22;5030;51.532;6.766;2023-06-10T10:04:49;28.80;1.00
9980;DHT22;5030;51.532;6.766;2023-06-10T10:07:14;28.80;1.00
9980;DHT22;5030;51.532;6.766;2023-06-10T10:09:41;29.00;1.00
9980;DHT22;5030;51.532;6.766;2023-06-10T10:12:14;28.90;1.00
9980;DHT22;5030;51.532;6.766;2023-06-10T10:14:46;29.00;1.00
9980;DHT22;5030;51.532;6.766;2023-06-10T10:17:14;29.10;1.00
9980;DHT22;5030;51.532;6.766;2023-06-10T10:19:45;29.10;1.00
9980;DHT22;5030;51.532;6.766;2023-06-10T10:22:20;29.20;1.00
9980;DHT22;5030;51.532;6.766;2023-06-10T10:24:50;29.40;1.00
9980;DHT22;5030;51.532;6.766;2023-06-10T10:27:40;29.60;1.00
9980;DHT22;5030;51.532;6.766;2023-06-10T10:30:11;29.60;1.00
9980;DHT22;5030;51.532;6.766;2023-06-10T10:32:58;29.80;1.00
9980;DHT22;5030;51.532;6.766;2023-06-10T10:35:25;30.20;1.00
9980;DHT22;5030;51.532;6.766;2023-06-10T10:37:52;30.20;1.00
9980;DHT22;5030;51.532;6.766;2023-06-10T10:40:22;30.50;1.00
9980;DHT22;5030;51.532;6.766;2023-06-10T10:42:50;30.50;1.00
9980;DHT22;5030;51.532;6.766;2023-06-10T10:45:16;30.10;1.00
9980;DHT22;5030;51.532;6.766;2023-06-10T10:47:44;30.20;1.00
9980;DHT22;5030;51.532;6.766;2023-06-10T10:50:15;30.30;1.00
9980;DHT22;5030;51.532;6.766;2023-06-10T10:52:59;30.40;1.00
9980;DHT22;5030;51.532;6.766;2023-06-10T10:55:26;30.50;1.00
9980;DHT22;5030;51.532;6.766;2023-06-10T11:00:29;30.50;1.00
9980;DHT22;5030;51.532;6.766;2023-06-10T11:03:00;30.80;1.00
9980;DHT22;5030;51.532;6.766;2023-06-10T11:05:40;31.10;1.00
9980;DHT22;5030;51.532;6.766;2023-06-10T11:08:08;31.30;1.00
9980;DHT22;5030;51.532;6.766;2023-06-10T11:10:39;31.30;1.00
9980;DHT22;5030;51.532;6.766;2023-06-10T11:13:06;31.40;1.00
9980;DHT22;5030;51.532;6.766;2023-06-10T11:15:38;31.80;1.00
9980;DHT22;5030;51.532;6.766;2023-06-10T11:31:38;31.60;1.00
9980;DHT22;5030;51.532;6.766;2023-06-10T11:34:05;32.00;1.00
9980;DHT22;5030;51.532;6.766;2023-06-10T11:36:39;32.50;1.00
9980;DHT22;5030;51.532;6.766;2023-06-10T11:39:06;32.50;1.00
9980;DHT22;5030;51.532;6.766;2023-06-10T11:41:33;32.30;1.00
9980;DHT22;5030;51.532;6.766;2023-06-10T11:44:04;32.50;1.00
9980;DHT22;5030;51.532;6.766;2023-06-10T11:46:30;33.00;1.00
9980;DHT22;5030;51.532;6.766;2023-06-10T11:48:58;33.00;1.00
9980;DHT22;5030;51.532;6.766;2023-06-10T11:51:34;33.30;1.00
9980;DHT22;5030;51.532;6.766;2023-06-10T11:54:00;33.00;1.00
9980;DHT22;5030;51.532;6.766;2023-06-10T11:56:27;33.40;1.00
9980;DHT22;5030;51.532;6.766;2023-06-10T11:59:04;33.50;1.00
9980;DHT22;5030;51.532;6.766;2023-06-10T12:01:37;33.20;1.00
9980;DHT22;5030;51.532;6.766;2023-06-10T12:04:08;33.00;1.00
9980;DHT22;5030;51.532;6.766;2023-06-10T12:06:53;32.70;1.00
9980;DHT22;5030;51.532;6.766;2023-06-10T12:11:50;33.40;1.00
9980;DHT22;5030;51.532;6.766;2023-06-10T12:14:16;33.00;1.00
9980;DHT22;5030;51.532;6.766;2023-06-10T12:16:48;33.10;1.00
9980;DHT22;5030;51.532;6.766;2023-06-10T12:19:16;33.40;1.00
9980;DHT22;5030;51.532;6.766;2023-06-10T12:21:42;33.60;1.00
9980;DHT22;5030;51.532;6.766;2023-06-10T12:24:10;33.70;1.00
9980;DHT22;5030;51.532;6.766;2023-06-10T12:26:41;33.80;1.00
9980;DHT22;5030;51.532;6.766;2023-06-10T12:29:22;33.70;1.00
9980;DHT22;5030;51.532;6.766;2023-06-10T12:31:57;34.30;1.00
9980;DHT22;5030;51.532;6.766;2023-06-10T12:34:40;34.10;1.00
9980;DHT22;5030;51.532;6.766;2023-06-10T12:37:10;33.80;1.00
9980;DHT22;5030;51.532;6.766;2023-06-10T12:39:39;33.70;1.00
9980;DHT22;5030;51.532;6.766;2023-06-10T12:42:05;33.70;1.00
9980;DHT22;5030;51.532;6.766;2023-06-10T12:44:38;34.30;1.00
9980;DHT22;5030;51.532;6.766;2023-06-10T12:47:11;34.60;1.00
9980;DHT22;5030;51.532;6.766;2023-06-10T12:49:39;34.60;1.00
9980;DHT22;5030;51.532;6.766;2023-06-10T12:52:06;34.60;1.00
9980;DHT22;5030;51.532;6.766;2023-06-10T12:54:32;33.90;1.00
9980;DHT22;5030;51.532;6.766;2023-06-10T12:56:58;33.70;1.00
9980;DHT22;5030;51.532;6.766;2023-06-10T12:59:23;34.00;1.00
9980;DHT22;5030;51.532;6.766;2023-06-10T13:01:53;34.20;1.00
9980;DHT22;5030;51.532;6.766;2023-06-10T13:04:19;34.60;1.00
9980;DHT22;5030;51.532;6.766;2023-06-10T13:06:46;34.70;1.00
9980;DHT22;5030;51.532;6.766;2023-06-10T13:09:13;34.20;1.00
9980;DHT22;5030;51.532;6.766;2023-06-10T13:11:39;33.70;1.00
9980;DHT22;5030;51.532;6.766;2023-06-10T13:14:06;33.80;1.00
9980;DHT22;5030;51.532;6.766;2023-06-10T13:16:32;33.70;1.00
9980;DHT22;5030;51.532;6.766;2023-06-10T13:18:58;33.80;1.00
9980;DHT22;5030;51.532;6.766;2023-06-10T13:21:24;33.30;1.00
9980;DHT22;5030;51.532;6.766;2023-06-10T13:23:50;33.70;1.00
9980;DHT22;5030;51.532;6.766;2023-06-10T13:26:16;34.10;1.00
9980;DHT22;5030;51.532;6.766;2023-06-10T13:28:43;34.60;1.00
9980;DHT22;5030;51.532;6.766;2023-06-10T13:31:09;34.40;1.00
9980;DHT22;5030;51.532;6.766;2023-06-10T13:33:35;34.10;1.00
9980;DHT22;5030;51.532;6.766;2023-06-10T13:36:00;33.90;1.00
9980;DHT22;5030;51.532;6.766;2023-06-10T13:38:26;33.80;1.00
9980;DHT22;5030;51.532;6.766;2023-06-10T13:40:52;34.30;1.00
9980;DHT22;5030;51.532;6.766;2023-06-10T13:43:17;34.70;1.00
9980;DHT22;5030;51.532;6.766;2023-06-10T13:45:43;34.40;1.00
9980;DHT22;5030;51.532;6.766;2023-06-10T13:48:09;34.20;1.00
9980;DHT22;5030;51.532;6.766;2023-06-10T13:50:35;34.30;1.00
9980;DHT22;5030;51.532;6.766;2023-06-10T13:53:00;34.80;1.00
9980;DHT22;5030;51.532;6.766;2023-06-10T13:55:26;34.40;1.00
9980;DHT22;5030;51.532;6.766;2023-06-10T13:57:52;34.90;1.00
9980;DHT22;5030;51.532;6.766;2023-06-10T14:00:18;34.10;1.00
9980;DHT22;5030;51.532;6.766;2023-06-10T14:02:43;33.80;1.00
9980;DHT22;5030;51.532;6.766;2023-06-10T14:05:10;33.70;1.00
9980;DHT22;5030;51.532;6.766;2023-06-10T14:07:35;33.20;1.00
9980;DHT22;5030;51.532;6.766;2023-06-10T14:10:02;33.50;1.00
9980;DHT22;5030;51.532;6.766;2023-06-10T14:12:28;33.70;1.00
9980;DHT22;5030;51.532;6.766;2023-06-10T14:14:54;34.30;1.00
9980;DHT22;5030;51.532;6.766;2023-06-10T14:17:19;34.90;1.00
9980;DHT22;5030;51.532;6.766;2023-06-10T14:19:45;34.70;1.00
9980;DHT22;5030;51.532;6.766;2023-06-10T14:22:11;34.70;1.00
9980;DHT22;5030;51.532;6.766;2023-06-10T14:24:39;34.90;1.00
9980;DHT22;5030;51.532;6.766;2023-06-10T14:27:05;35.00;1.00
9980;DHT22;5030;51.532;6.766;2023-06-10T14:29:31;34.40;1.00
9980;DHT22;5030;51.532;6.766;2023-06-10T14:31:59;33.80;1.00
9980;DHT22;5030;51.532;6.766;2023-06-10T14:34:25;32.90;1.00
9980;DHT22;5030;51.532;6.766;2023-06-10T14:36:54;32.70;1.00
9980;DHT22;5030;51.532;6.766;2023-06-10T14:39:20;32.10;1.00
9980;DHT22;5030;51.532;6.766;2023-06-10T14:41:46;32.40;1.00
9980;DHT22;5030;51.532;6.766;2023-06-10T14:44:11;33.20;1.00
9980;DHT22;5030;51.532;6.766;2023-06-10T14:46:37;33.60;1.00
9980;DHT22;5030;51.532;6.766;2023-06-10T14:49:02;34.10;1.00
9980;DHT22;5030;51.532;6.766;2023-06-10T14:51:28;34.20;1.00
9980;DHT22;5030;51.532;6.766;2023-06-10T14:53:54;34.10;1.00
9980;DHT22;5030;51.532;6.766;2023-06-10T14:56:19;33.40;1.00
9980;DHT22;5030;51.532;6.766;2023-06-10T14:58:45;33.20;1.00
9980;DHT22;5030;51.532;6.766;2023-06-10T15:01:10;32.70;1.00
9980;DHT22;5030;51.532;6.766;2023-06-10T15:03:36;33.50;1.00
9980;DHT22;5030;51.532;6.766;2023-06-10T15:06:02;33.80;1.00
9980;DHT22;5030;51.532;6.766;2023-06-10T15:08:28;33.80;1.00
9980;DHT22;5030;51.532;6.766;2023-06-10T15:10:54;34.30;1.00
9980;DHT22;5030;51.532;6.766;2023-06-10T15:13:20;34.80;1.00
9980;DHT22;5030;51.532;6.766;2023-06-10T15:15:45;35.10;1.00
9980;DHT22;5030;51.532;6.766;2023-06-10T15:18:11;34.90;1.00
9980;DHT22;5030;51.532;6.766;2023-06-10T15:20:36;34.80;1.00
9980;DHT22;5030;51.532;6.766;2023-06-10T15:23:02;34.80;1.00
9980;DHT22;5030;51.532;6.766;2023-06-10T15:25:28;34.40;1.00
9980;DHT22;5030;51.532;6.766;2023-06-10T15:27:53;34.40;1.00
9980;DHT22;5030;51.532;6.766;2023-06-10T15:30:19;34.90;1.00
9980;DHT22;5030;51.532;6.766;2023-06-10T15:32:44;34.30;1.00
9980;DHT22;5030;51.532;6.766;2023-06-10T15:35:10;34.30;1.00
9980;DHT22;5030;51.532;6.766;2023-06-10T15:37:36;34.40;1.00
9980;DHT22;5030;51.532;6.766;2023-06-10T15:40:01;33.80;1.00
9980;DHT22;5030;51.532;6.766;2023-06-10T15:42:27;33.70;1.00
9980;DHT22;5030;51.532;6.766;2023-06-10T15:44:53;33.70;1.00
9980;DHT22;5030;51.532;6.766;2023-06-10T15:47:19;33.50;1.00
9980;DHT22;5030;51.532;6.766;2023-06-10T15:49:45;33.30;1.00
9980;DHT22;5030;51.532;6.766;2023-06-10T15:52:11;33.20;1.00
9980;DHT22;5030;51.532;6.766;2023-06-10T15:54:37;33.00;1.00
9980;DHT22;5030;51.532;6.766;2023-06-10T15:57:02;33.60;1.00
9980;DHT22;5030;51.532;6.766;2023-06-10T15:59:29;34.00;1.00
9980;DHT22;5030;51.532;6.766;2023-06-10T16:01:55;33.30;1.00
9980;DHT22;5030;51.532;6.766;2023-06-10T16:04:21;33.40;1.00
9980;DHT22;5030;51.532;6.766;2023-06-10T16:06:46;33.60;1.00
9980;DHT22;5030;51.532;6.766;2023-06-10T16:09:14;33.60;1.00
9980;DHT22;5030;51.532;6.766;2023-06-10T16:11:40;34.00;1.00
9980;DHT22;5030;51.532;6.766;2023-06-10T16:14:08;33.10;1.00
9980;DHT22;5030;51.532;6.766;2023-06-10T16:16:34;32.70;1.00
9980;DHT22;5030;51.532;6.766;2023-06-10T16:19:19;32.80;1.00
9980;DHT22;5030;51.532;6.766;2023-06-10T16:21:45;32.70;1.00
9980;DHT22;5030;51.532;6.766;2023-06-10T16:24:11;33.10;1.00
9980;DHT22;5030;51.532;6.766;2023-06-10T16:26:37;33.10;1.00
9980;DHT22;5030;51.532;6.766;2023-06-10T16:29:02;33.00;1.00
9980;DHT22;5030;51.532;6.766;2023-06-10T16:31:28;33.10;1.00
9980;DHT22;5030;51.532;6.766;2023-06-10T16:33:54;33.00;1.00
9980;DHT22;5030;51.532;6.766;2023-06-10T16:36:19;33.10;1.00
9980;DHT22;5030;51.532;6.766;2023-06-10T16:38:45;32.70;1.00
9980;DHT22;5030;51.532;6.766;2023-06-10T16:41:11;32.80;1.00
9980;DHT22;5030;51.532;6.766;2023-06-10T16:43:37;32.80;1.00
9980;DHT22;5030;51.532;6.766;2023-06-10T16:46:02;32.60;1.00
9980;DHT22;5030;51.532;6.766;2023-06-10T16:48:28;32.70;1.00
9980;DHT22;5030;51.532;6.766;2023-06-10T16:50:54;32.30;1.00
9980;DHT22;5030;51.532;6.766;2023-06-10T16:53:19;31.90;1.00
9980;DHT22;5030;51.532;6.766;2023-06-10T16:55:45;31.80;1.00
9980;DHT22;5030;51.532;6.766;2023-06-10T16:58:14;31.60;1.00
9980;DHT22;5030;51.532;6.766;2023-06-10T17:00:40;32.00;1.00
9980;DHT22;5030;51.532;6.766;2023-06-10T17:03:13;32.10;1.00
9980;DHT22;5030;51.532;6.766;2023-06-10T17:05:39;32.10;1.00
9980;DHT22;5030;51.532;6.766;2023-06-10T17:08:04;32.20;1.00
9980;DHT22;5030;51.532;6.766;2023-06-10T17:10:30;31.70;1.00
9980;DHT22;5030;51.532;6.766;2023-06-10T17:12:58;31.60;1.00
9980;DHT22;5030;51.532;6.766;2023-06-10T17:15:24;31.50;1.00
9980;DHT22;5030;51.532;6.766;2023-06-10T17:17:50;31.50;1.00
9980;DHT22;5030;51.532;6.766;2023-06-10T17:20:15;31.60;1.00
9980;DHT22;5030;51.532;6.766;2023-06-10T17:22:41;31.50;1.00
9980;DHT22;5030;51.532;6.766;2023-06-10T17:25:07;31.40;1.00
9980;DHT22;5030;51.532;6.766;2023-06-10T17:27:33;31.40;1.00
9980;DHT22;5030;51.532;6.766;2023-06-10T17:29:59;31.50;1.00
9980;DHT22;5030;51.532;6.766;2023-06-10T17:32:25;31.60;1.00
9980;DHT22;5030;51.532;6.766;2023-06-10T17:34:53;31.30;1.00